メインページ
METAR-TAF:

METAR-TAF

空港 :

Cold Lake, アルバータ州, カナダ

緯度: 54-25N, 経度: 110-17W, 海抜: 541m

現時点の気象観測

当レポートは18分前の10:00(UTC)に作成
無風
気温 13°C
湿度 88%
気圧 1014 hPa
視程: 24.1km
晴天

METAR: CYOD 051000Z 00000KT 15SM SKC 13/11 A2994 RMK SLP142

時間: 04:18 (10:18 UTC)

予報

当レポートは4時間48分前の05:30(UTC)に作成
予報は05日の 06時(UTC)から 06日の 06時(UTC)まで有効
南/南西の風 5kt
視程: 10km
高度25000ftの雲はほとんどない
確率 30%
05日の 10時(UTC)から 05日の 13時(UTC)まで
視程: 3.2km
05日の 1800時(UTC)から
南西の風 8kt
視程: 10km
高度6000ftの雲は散在している
05日の 20時(UTC)から 05日の 22時(UTC)まで徐々に
南西の風 12kt
06日の 0300時(UTC)から
の風 8kt
視程: 10km
高度8000ftの雲はほとんどない

TAF: CYOD 050530Z 0506/0606 21005KT P6SM FEW250 PROB30 0510/0513 2SM BR FM051800 22008KT P6SM SCT060 BECMG 0520/0522 22012KT FM060300 18008KT P6SM FEW080 RMK NXT FCST BY 051200Z

4,000以上の空港の気象観測と天気予報(METAR報とTAF報)

利用可能な観測所は地図上に黄色い丸と赤い丸で示す。

丸の上にカーソルを重ねると観測所名を参照できる。

次にクリックすると気象観測と天気予報を参照できる。

マップの切り替え:黒色「×」印の緑ボタンをクリックして拡大、「-」印の緑ボタンをクリックして縮小、緑色の三角印をクリックして隣りの地図に切り替え


METAR-TAF: